createdAt,value
2023-02-17T00:02:20.808Z,25.08
2023-02-17T00:05:24.744Z,27.13
2023-02-17T00:08:30.563Z,26.00
2023-02-17T00:11:34.680Z,25.35
2023-02-17T00:14:41.301Z,23.08
2023-02-17T00:17:47.018Z,26.30
2023-02-17T00:20:53.474Z,24.00
2023-02-17T00:23:58.986Z,24.02
2023-02-17T00:27:05.116Z,24.63
2023-02-17T00:30:10.464Z,23.98
2023-02-17T00:33:18.236Z,23.90
2023-02-17T00:36:22.074Z,27.40
2023-02-17T00:39:27.893Z,24.35
2023-02-17T00:42:31.722Z,23.25
2023-02-17T00:45:38.158Z,22.20
2023-02-17T00:48:44.341Z,24.08
2023-02-17T00:51:51.647Z,20.63
2023-02-17T00:54:55.462Z,21.77
2023-02-17T00:58:01.355Z,20.67
2023-02-17T01:04:13.389Z,22.63
2023-02-17T01:07:17.198Z,22.05
2023-02-17T01:10:23.274Z,22.70
2023-02-17T01:13:27.133Z,24.17
2023-02-17T01:16:36.757Z,20.80
2023-02-17T01:19:42.544Z,22.52
2023-02-17T01:22:48.478Z,26.33
2023-02-17T01:25:52.606Z,26.15
2023-02-17T01:28:59.392Z,23.83
2023-02-17T01:32:03.540Z,24.75
2023-02-17T01:35:11.527Z,22.63
2023-02-17T01:38:15.351Z,21.05
2023-02-17T01:41:26.219Z,26.13
2023-02-17T01:44:33.921Z,27.30
2023-02-17T01:47:39.803Z,26.98
2023-02-17T01:51:08.287Z,25.63
2023-02-17T01:54:17.155Z,26.60
2023-02-17T01:57:25.780Z,28.88
2023-02-17T02:00:33.697Z,22.98
2023-02-17T02:03:39.544Z,27.27
2023-02-17T02:06:48.666Z,29.48
2023-02-17T02:09:55.437Z,27.77
2023-02-17T02:13:01.341Z,25.98
2023-02-17T02:16:14.949Z,24.08
2023-02-17T02:19:40.450Z,25.25
2023-02-17T02:23:29.340Z,26.38
2023-02-17T02:26:58.498Z,27.02
2023-02-17T02:30:21.959Z,29.45
2023-02-17T02:33:38.829Z,29.85
2023-02-17T02:36:47.631Z,24.85
2023-02-17T02:39:56.623Z,25.15
2023-02-17T02:43:04.606Z,28.98
2023-02-17T02:46:10.805Z,31.40
2023-02-17T02:49:16.762Z,26.63
2023-02-17T02:52:33.311Z,28.48
2023-02-17T02:55:51.011Z,28.65
2023-02-17T02:59:07.322Z,28.58
2023-02-17T03:02:20.775Z,20.88
2023-02-17T03:05:38.925Z,26.50
2023-02-17T03:08:47.779Z,26.25
2023-02-17T03:11:56.891Z,24.67
2023-02-17T03:15:07.754Z,28.23
2023-02-17T03:18:13.750Z,26.13
2023-02-17T03:21:20.631Z,27.33
2023-02-17T03:24:27.201Z,27.85
2023-02-17T03:30:37.417Z,30.13
2023-02-17T03:33:41.213Z,29.75
2023-02-17T03:36:48.918Z,31.17
2023-02-17T03:39:52.812Z,34.67
2023-02-17T03:42:59.092Z,29.60
2023-02-17T03:46:03.127Z,28.90
2023-02-17T03:49:09.022Z,31.83
2023-02-17T03:52:14.774Z,30.90
2023-02-17T03:55:20.642Z,27.75
2023-02-17T03:58:24.490Z,31.02
2023-02-17T04:01:30.409Z,31.23
2023-02-17T04:07:43.486Z,35.10
2023-02-17T04:10:47.277Z,28.85
2023-02-17T04:13:53.343Z,30.23
2023-02-17T04:16:57.700Z,36.25
2023-02-17T04:20:03.647Z,32.17
2023-02-17T04:23:09.721Z,27.27
2023-02-17T04:26:16.147Z,30.55
2023-02-17T04:29:20.016Z,29.52
2023-02-17T04:32:25.845Z,27.58
2023-02-17T04:35:29.792Z,37.53
2023-02-17T04:38:37.614Z,28.17
2023-02-17T04:41:41.524Z,29.77
2023-02-17T04:44:47.372Z,26.70
2023-02-17T04:47:51.270Z,27.20
2023-02-17T04:50:57.146Z,24.90
2023-02-17T04:57:08.593Z,30.63
2023-02-17T05:00:13.812Z,28.25
2023-02-17T05:03:20.440Z,31.38
2023-02-17T05:06:24.263Z,25.88
2023-02-17T05:09:32.143Z,30.38
2023-02-17T05:12:35.982Z,24.80
2023-02-17T05:15:41.868Z,22.00
2023-02-17T05:21:51.579Z,24.45
2023-02-17T05:24:57.846Z,23.70
2023-02-17T05:28:04.241Z,24.25
2023-02-17T05:31:08.149Z,23.90
2023-02-17T05:34:14.646Z,23.85
2023-02-17T05:37:18.489Z,24.27
2023-02-17T05:40:26.290Z,20.20
2023-02-17T05:43:30.164Z,22.77
2023-02-17T05:46:36.272Z,21.13
2023-02-17T05:49:40.089Z,24.35
2023-02-17T05:52:45.929Z,22.90
2023-02-17T05:55:51.696Z,23.95
2023-02-17T05:58:57.541Z,20.23
2023-02-17T06:02:01.423Z,20.10
2023-02-17T06:05:08.201Z,21.40
2023-02-17T06:08:12.186Z,22.60
2023-02-17T06:11:20.091Z,22.92
2023-02-17T06:14:23.945Z,17.17
2023-02-17T06:17:29.866Z,17.92
2023-02-17T06:23:39.467Z,21.63
2023-02-17T06:26:45.238Z,19.17
2023-02-17T06:29:51.044Z,20.10
2023-02-17T06:32:54.836Z,20.13
2023-02-17T06:36:00.834Z,21.35
2023-02-17T06:42:12.490Z,32.03
2023-02-17T06:45:16.933Z,19.40
2023-02-17T06:48:22.787Z,26.73
2023-02-17T06:51:26.606Z,21.90
2023-02-17T06:54:32.476Z,23.25
2023-02-17T07:00:43.823Z,26.65
2023-02-17T07:03:47.931Z,29.10
2023-02-17T07:06:53.795Z,24.08
2023-02-17T07:13:05.315Z,27.20
2023-02-17T07:16:10.538Z,23.90
2023-02-17T07:19:16.599Z,24.05
2023-02-17T07:25:26.794Z,26.23
2023-02-17T07:28:32.874Z,27.13
2023-02-17T07:31:38.968Z,26.23
2023-02-17T07:34:43.518Z,23.15
2023-02-17T07:37:51.048Z,22.25
2023-02-17T07:40:54.857Z,23.60
2023-02-17T07:44:02.715Z,27.63
2023-02-17T07:47:06.652Z,23.23
2023-02-17T07:50:13.216Z,20.52
2023-02-17T07:53:17.077Z,25.13
2023-02-17T07:56:23.963Z,21.90
2023-02-17T07:59:29.861Z,20.77
2023-02-17T08:02:36.017Z,22.90
2023-02-17T08:05:41.556Z,21.52
2023-02-17T08:09:01.293Z,22.45
2023-02-17T08:12:18.675Z,23.30
2023-02-17T08:15:26.581Z,20.27
2023-02-17T08:18:32.418Z,27.35
2023-02-17T08:21:42.039Z,23.08
2023-02-17T08:24:46.554Z,22.45
2023-02-17T08:27:53.880Z,22.23
2023-02-17T08:30:59.812Z,23.85
2023-02-17T08:34:08.438Z,22.88
2023-02-17T08:37:13.011Z,21.67
2023-02-17T08:40:20.020Z,17.30
2023-02-17T08:43:23.881Z,23.95
2023-02-17T08:46:32.270Z,17.98
2023-02-17T08:49:36.319Z,21.52
2023-02-17T08:52:42.716Z,19.90
2023-02-17T08:55:49.446Z,23.83
2023-02-17T08:58:55.706Z,18.25
2023-02-17T09:02:01.653Z,19.20
2023-02-17T09:05:07.628Z,17.73
2023-02-17T09:08:12.073Z,19.13
2023-02-17T09:11:20.187Z,20.90
2023-02-17T09:14:24.988Z,21.15
2023-02-17T09:17:33.059Z,17.90
2023-02-17T09:20:38.885Z,20.23
2023-02-17T09:23:45.113Z,15.93
2023-02-17T09:26:48.977Z,18.75
2023-02-17T09:29:54.906Z,18.38
2023-02-17T09:36:07.880Z,19.38
2023-02-17T09:39:13.867Z,18.58
2023-02-17T09:42:21.731Z,16.27
2023-02-17T09:45:30.130Z,17.02
2023-02-17T09:48:39.316Z,16.35
2023-02-17T09:51:46.944Z,16.95
2023-02-17T09:55:03.411Z,15.05
2023-02-17T09:58:13.435Z,17.75
2023-02-17T10:01:22.726Z,15.32
2023-02-17T10:04:35.602Z,18.25
2023-02-17T10:07:47.535Z,15.52
2023-02-17T10:10:56.334Z,18.00
2023-02-17T10:14:06.850Z,16.23
2023-02-17T10:17:20.126Z,17.42
2023-02-17T10:20:33.048Z,15.02
2023-02-17T10:23:36.922Z,10.35
2023-02-17T10:26:52.994Z,14.75
2023-02-17T10:30:13.616Z,11.48
2023-02-17T10:33:25.102Z,14.10
2023-02-17T10:36:40.348Z,18.55
2023-02-17T10:39:51.271Z,12.35
2023-02-17T10:42:58.873Z,11.38
2023-02-17T10:46:09.444Z,11.93
2023-02-17T10:49:23.931Z,8.82
2023-02-17T10:52:38.314Z,12.65
2023-02-17T10:55:49.127Z,11.80
2023-02-17T10:58:59.881Z,9.05
2023-02-17T11:02:18.574Z,8.90
2023-02-17T11:05:28.095Z,13.98
2023-02-17T11:08:36.277Z,9.18
2023-02-17T11:11:54.671Z,10.75
2023-02-17T11:14:58.908Z,9.13
2023-02-17T11:18:12.858Z,10.90
2023-02-17T11:21:16.869Z,8.98
2023-02-17T11:24:24.840Z,9.57
2023-02-17T11:27:28.730Z,10.52
2023-02-17T11:30:36.484Z,14.25
2023-02-17T11:33:41.598Z,10.68
2023-02-17T11:36:47.636Z,10.68
2023-02-17T11:39:54.996Z,9.75
2023-02-17T11:43:02.524Z,6.40
2023-02-17T11:46:17.365Z,9.55
2023-02-17T11:50:00.897Z,11.15
2023-02-17T11:53:17.195Z,9.80
2023-02-17T11:56:31.008Z,10.68
2023-02-17T11:59:50.785Z,15.48
2023-02-17T12:03:21.680Z,12.15
2023-02-17T12:06:39.261Z,9.40
2023-02-17T12:09:53.649Z,8.25
2023-02-17T12:13:06.936Z,12.93
2023-02-17T12:16:35.656Z,10.18
2023-02-17T12:19:47.224Z,11.02
2023-02-17T12:23:07.028Z,11.35
2023-02-17T12:26:19.132Z,11.88
2023-02-17T12:32:53.071Z,11.00
2023-02-17T12:36:03.702Z,13.23
2023-02-17T12:39:16.765Z,14.90
2023-02-17T12:42:26.680Z,13.75
2023-02-17T12:45:40.801Z,10.73
2023-02-17T12:48:52.618Z,9.30
2023-02-17T12:52:00.544Z,13.02
2023-02-17T12:55:19.250Z,12.52
2023-02-17T12:58:27.928Z,12.57
2023-02-17T13:01:35.963Z,13.48
2023-02-17T13:04:40.663Z,12.32
2023-02-17T13:07:50.571Z,9.30
2023-02-17T13:11:03.031Z,12.80
2023-02-17T13:14:12.999Z,10.98
2023-02-17T13:17:41.627Z,11.10
2023-02-17T13:20:58.930Z,10.65
2023-02-17T13:24:06.874Z,12.45
2023-02-17T13:27:21.335Z,12.45
2023-02-17T13:30:35.248Z,8.85
2023-02-17T13:33:49.576Z,7.18
2023-02-17T13:36:53.832Z,9.23
2023-02-17T13:40:00.343Z,11.43
2023-02-17T13:43:12.110Z,11.13
2023-02-17T13:46:23.666Z,14.00
2023-02-17T13:49:33.293Z,8.27
2023-02-17T13:52:39.141Z,11.23
2023-02-17T13:55:42.948Z,10.27
2023-02-17T13:58:48.778Z,11.80
2023-02-17T14:01:54.098Z,10.52
2023-02-17T14:05:07.860Z,12.25
2023-02-17T14:08:18.736Z,9.95
2023-02-17T14:11:27.387Z,9.43
2023-02-17T14:14:33.976Z,12.13
2023-02-17T14:17:39.847Z,17.95
2023-02-17T14:20:45.578Z,9.50
2023-02-17T14:23:53.449Z,20.10
2023-02-17T14:27:00.837Z,13.23
2023-02-17T14:30:08.661Z,9.77
2023-02-17T14:33:22.196Z,10.07
2023-02-17T14:36:33.293Z,9.98
2023-02-17T14:39:37.442Z,10.48
2023-02-17T14:42:43.279Z,9.70
2023-02-17T14:45:47.163Z,8.02
2023-02-17T14:48:53.843Z,7.03
2023-02-17T14:51:59.877Z,13.98
2023-02-17T14:55:15.098Z,11.85
2023-02-17T14:58:21.580Z,8.45
2023-02-17T15:01:27.869Z,13.88
2023-02-17T15:04:31.746Z,6.80
2023-02-17T15:07:40.247Z,12.20
2023-02-17T15:10:45.214Z,11.48
2023-02-17T15:13:51.284Z,10.65
2023-02-17T15:16:55.141Z,13.57
2023-02-17T15:20:01.046Z,16.35
2023-02-17T15:23:14.131Z,11.73
2023-02-17T15:26:20.054Z,13.23
2023-02-17T15:29:26.702Z,8.75
2023-02-17T15:32:32.641Z,11.88
2023-02-17T15:35:36.501Z,8.25
2023-02-17T15:38:44.634Z,11.85
2023-02-17T15:41:50.086Z,8.77
2023-02-17T15:44:55.965Z,7.85
2023-02-17T15:48:05.838Z,8.20
2023-02-17T15:51:14.475Z,10.95
2023-02-17T15:54:20.238Z,13.73
2023-02-17T15:57:27.048Z,11.48
2023-02-17T16:00:34.763Z,11.63
2023-02-17T16:03:40.633Z,10.30
2023-02-17T16:06:44.698Z,11.35
2023-02-17T16:09:52.531Z,15.25
2023-02-17T16:12:59.088Z,11.27
2023-02-17T16:16:05.817Z,9.80
2023-02-17T16:19:13.695Z,15.52
2023-02-17T16:22:19.497Z,9.82
2023-02-17T16:25:25.359Z,16.98
2023-02-17T16:28:32.426Z,6.53
2023-02-17T16:31:36.355Z,12.63
2023-02-17T16:34:42.303Z,14.30
2023-02-17T16:37:54.250Z,14.45
2023-02-17T16:41:02.019Z,11.55
2023-02-17T16:44:07.762Z,10.48
2023-02-17T16:47:21.858Z,12.40
2023-02-17T16:50:28.317Z,13.45
2023-02-17T16:53:34.148Z,11.43
2023-02-17T16:56:45.287Z,9.73
2023-02-17T16:59:51.246Z,10.35
2023-02-17T17:06:03.759Z,8.88
2023-02-17T17:09:07.596Z,13.93
2023-02-17T17:12:15.449Z,17.15
2023-02-17T17:15:20.195Z,17.83
2023-02-17T17:18:26.389Z,15.77
2023-02-17T17:21:30.563Z,12.05
2023-02-17T17:24:36.468Z,10.75
2023-02-17T17:30:50.020Z,9.93
2023-02-17T17:33:54.281Z,16.70
2023-02-17T17:37:00.157Z,14.55
2023-02-17T17:40:04.412Z,8.43
2023-02-17T17:43:12.185Z,11.95
2023-02-17T17:46:18.543Z,12.18
2023-02-17T17:49:24.953Z,15.13
2023-02-17T17:52:28.900Z,12.68
2023-02-17T17:55:34.721Z,16.65
2023-02-17T17:58:40.487Z,12.48
2023-02-17T18:01:46.484Z,17.13
2023-02-17T18:04:50.441Z,15.60
2023-02-17T18:07:56.541Z,14.88
2023-02-17T18:14:11.999Z,9.15
2023-02-17T18:17:17.613Z,23.48
2023-02-17T18:20:23.676Z,9.05
2023-02-17T18:23:27.496Z,9.48
2023-02-17T18:26:33.438Z,15.15
2023-02-17T18:32:45.624Z,12.35
2023-02-17T18:35:49.813Z,9.77
2023-02-17T18:38:56.003Z,16.65
2023-02-17T18:41:59.844Z,12.32
2023-02-17T18:45:08.451Z,11.93
2023-02-17T18:48:12.271Z,21.20
2023-02-17T18:51:22.665Z,15.93
2023-02-17T18:54:26.507Z,18.67
2023-02-17T18:57:33.443Z,11.82
2023-02-17T19:00:39.161Z,15.35
2023-02-17T19:03:45.488Z,14.77
2023-02-17T19:06:49.337Z,11.35
2023-02-17T19:09:55.167Z,11.43
2023-02-17T19:12:58.936Z,21.45
2023-02-17T19:16:11.723Z,23.27
2023-02-17T19:19:15.750Z,12.60
2023-02-17T19:22:21.867Z,16.77
2023-02-17T19:25:26.019Z,11.15
2023-02-17T19:28:32.020Z,13.68
2023-02-17T19:34:43.498Z,14.25
2023-02-17T19:37:47.344Z,17.85
2023-02-17T19:40:53.234Z,14.93
2023-02-17T19:43:57.010Z,17.35
2023-02-17T19:47:04.912Z,19.92
2023-02-17T19:50:10.007Z,22.33
2023-02-17T19:53:15.864Z,24.38
2023-02-17T19:56:22.020Z,21.15
2023-02-17T19:59:27.880Z,18.52
2023-02-17T20:02:33.802Z,18.08
2023-02-17T20:05:40.368Z,18.08
2023-02-17T20:08:44.786Z,22.65
2023-02-17T20:11:52.460Z,11.98
2023-02-17T20:14:56.931Z,19.10
2023-02-17T20:18:05.156Z,18.65
2023-02-17T20:21:11.322Z,15.52
2023-02-17T20:24:17.362Z,20.30
2023-02-17T20:27:21.667Z,12.02
2023-02-17T20:30:27.577Z,20.88
2023-02-17T20:33:33.448Z,17.52
2023-02-17T20:36:39.309Z,17.98
2023-02-17T20:39:43.134Z,18.92
2023-02-17T20:42:49.164Z,21.00
2023-02-17T20:49:01.456Z,20.48
2023-02-17T20:52:05.284Z,17.33
2023-02-17T20:55:11.717Z,14.20
2023-02-17T20:58:15.789Z,19.83
2023-02-17T21:01:21.661Z,17.95
2023-02-17T21:04:27.404Z,7.88
2023-02-17T21:07:33.297Z,17.92
2023-02-17T21:10:39.232Z,13.50
2023-02-17T21:13:45.279Z,12.10
2023-02-17T21:16:49.168Z,20.27
2023-02-17T21:19:56.943Z,14.90
2023-02-17T21:23:01.249Z,19.60
2023-02-17T21:26:09.234Z,12.68
2023-02-17T21:29:13.264Z,14.30
2023-02-17T21:32:19.110Z,18.35
2023-02-17T21:38:30.490Z,18.10
2023-02-17T21:41:35.420Z,21.70
2023-02-17T21:44:56.788Z,18.08
2023-02-17T21:48:00.628Z,15.85
2023-02-17T21:51:11.282Z,15.73
2023-02-17T21:54:16.067Z,17.30
2023-02-17T21:57:21.972Z,18.15
2023-02-17T22:00:26.106Z,20.92
2023-02-17T22:03:31.965Z,28.63
2023-02-17T22:06:40.136Z,17.65
2023-02-17T22:09:46.068Z,25.00
2023-02-17T22:16:00.198Z,20.98
2023-02-17T22:19:04.930Z,24.50
2023-02-17T22:22:12.709Z,22.35
2023-02-17T22:25:16.788Z,20.13
2023-02-17T22:28:22.762Z,19.48
2023-02-17T22:34:33.233Z,29.90
2023-02-17T22:37:39.483Z,20.65
2023-02-17T22:40:45.331Z,24.23
2023-02-17T22:43:50.204Z,18.45
2023-02-17T22:46:56.080Z,30.02
2023-02-17T22:49:59.880Z,20.25
2023-02-17T22:53:07.893Z,22.55
2023-02-17T22:56:12.669Z,18.10
2023-02-17T22:59:18.541Z,23.52
2023-02-17T23:05:27.986Z,17.10
2023-02-17T23:08:34.451Z,16.30
2023-02-17T23:11:56.988Z,23.02
2023-02-17T23:15:03.123Z,19.30
2023-02-17T23:18:11.390Z,25.55
2023-02-17T23:21:15.288Z,21.42
2023-02-17T23:24:24.235Z,23.75
2023-02-17T23:27:28.199Z,23.58
2023-02-17T23:30:34.762Z,22.33
2023-02-17T23:33:39.381Z,28.02
2023-02-17T23:36:46.908Z,24.95
2023-02-17T23:39:52.711Z,19.23
2023-02-17T23:42:58.588Z,24.95
2023-02-17T23:46:02.775Z,32.90
2023-02-17T23:49:08.820Z,24.70
2023-02-17T23:52:12.719Z,27.08
2023-02-17T23:55:21.057Z,27.30
2023-02-17T23:58:24.867Z,26.00
